Ryoho Maru No.2 — JD2964 — position and weather

sailwx.info

Track history (hours):
 
Tides and Currents Weather Stations Pressure Air Temp Water Temp Dewpoint Dewpoint Depression Visibility Wind Speed Wind Dir Waves Ship Positions

Ryoho Maru No.2

Last reported at 2017-Feb-22 05:33 UTC. Time now 2017-Feb-22 06:29 UTC.
Position N 35°26' E 139°45'.

Length 57 m; draft 4 m.

Type: Tanker. MMSI: 431001062.

Date/timePositionNaut miles runAvg speedWind from/ knotsBaromVisibWave heightAir tempDewpointWater temp
2017-Feb-22 05:33N 35°26' E 139°45'10 9.7
2017-Feb-22 04:33N 35°30' E 139°56'2 0.4
2017-Feb-21 22:33N 35°30' E 139°58'7 7.2
2017-Feb-21 21:34N 35°36' E 139°55'0 0.0
2017-Feb-21 20:29N 35°36' E 139°55'0 0.0
2017-Feb-21 19:26N 35°36' E 139°55'0 0.0
2017-Feb-21 18:29N 35°36' E 139°55'0 0.0
2017-Feb-21 17:29N 35°36' E 139°55'0 0.0
2017-Feb-21 16:29N 35°36' E 139°55'0 0.0
2017-Feb-21 15:32N 35°36' E 139°55'0 0.0
2017-Feb-21 14:29N 35°36' E 139°55'0 0.0
2017-Feb-21 13:33N 35°36' E 139°55'0 0.0
2017-Feb-21 12:32N 35°36' E 139°55'0 0.0
2017-Feb-21 11:30N 35°36' E 139°55'0 0.0
2017-Feb-21 10:32N 35°36' E 139°55'0 0.0
2017-Feb-21 09:29N 35°36' E 139°55'0 0.0
2017-Feb-21 08:31N 35°36' E 139°55'0 0.0
2017-Feb-21 07:31N 35°36' E 139°55'0 0.0
2017-Feb-21 06:31N 35°36' E 139°55'7 7.5
2017-Feb-21 05:33N 35°30' E 139°59'1 0.8
2017-Feb-21 04:17N 35°29' E 139°60'0 0.0
2017-Feb-20 22:33N 35°29' E 139°60'8 2.0
2017-Feb-20 18:33N 35°36' E 139°55'0 0.0
2017-Feb-20 17:21N 35°36' E 139°55'0 0.0
2017-Feb-20 16:31N 35°36' E 139°55'0 0.0
2017-Feb-20 15:33N 35°36' E 139°55'0 0.0
2017-Feb-20 14:33N 35°36' E 139°55'0 0.0
2017-Feb-20 13:32N 35°36' E 139°55'0 0.0
2017-Feb-20 10:15N 35°36' E 139°55'0 0.1
2017-Feb-20 09:04N 35°36' E 139°55'0 0.1
2017-Feb-20 08:31N 35°36' E 139°55'0 0.0
2017-Feb-20 07:33N 35°36' E 139°55'0 0.0
2017-Feb-20 06:34N 35°36' E 139°55'0 0.0
2017-Feb-20 05:33N 35°36' E 139°55'0 0.0
2017-Feb-20 04:33N 35°36' E 139°55'0 0.0
2017-Feb-20 03:32N 35°36' E 139°55'0 0.0
2017-Feb-20 02:32N 35°36' E 139°55'0 0.0
2017-Feb-20 01:33N 35°36' E 139°55'0 0.1
2017-Feb-20 00:30N 35°36' E 139°55'0 0.0
2017-Feb-19 23:04N 35°36' E 139°55'0 0.0
2017-Feb-19 22:28N 35°36' E 139°55'0 0.0
2017-Feb-19 21:32N 35°36' E 139°55'0 0.0
2017-Feb-19 20:33N 35°36' E 139°55'0 0.0
2017-Feb-19 19:32N 35°36' E 139°55'0 0.0
2017-Feb-19 18:33N 35°36' E 139°55'0 0.0
2017-Feb-19 17:32N 35°36' E 139°55'0 0.0
2017-Feb-19 16:29N 35°36' E 139°55'0 0.0
2017-Feb-19 15:32N 35°36' E 139°55'0 0.0
2017-Feb-19 14:14N 35°36' E 139°55'0 0.0
2017-Feb-19 13:32N 35°36' E 139°55'0 0.0
2017-Feb-19 12:32N 35°36' E 139°55'0 0.0
2017-Feb-19 11:32N 35°36' E 139°55'0 0.0
2017-Feb-19 10:32N 35°36' E 139°55'0 0.0
2017-Feb-19 09:14N 35°36' E 139°55'0 0.0
2017-Feb-19 08:32N 35°36' E 139°55'0 0.0
2017-Feb-19 07:32N 35°36' E 139°55'0 0.0
2017-Feb-19 05:32N 35°36' E 139°55'0 0.1
2017-Feb-19 04:32N 35°36' E 139°55'0 0.0
2017-Feb-19 03:32N 35°36' E 139°55'0 0.0
2017-Feb-19 02:32N 35°36' E 139°55'0 0.0
2017-Feb-19 01:32N 35°36' E 139°55'0 0.0
2017-Feb-19 00:32N 35°36' E 139°55'0 0.0
2017-Feb-18 23:32N 35°36' E 139°55'0 0.0
2017-Feb-18 22:32N 35°36' E 139°55'0 0.0
2017-Feb-18 21:32N 35°36' E 139°55'0 0.0
2017-Feb-18 20:32N 35°36' E 139°55'0 0.0
2017-Feb-18 19:32N 35°36' E 139°55'0 0.0
2017-Feb-18 18:29N 35°36' E 139°55'0 0.0
2017-Feb-18 17:32N 35°36' E 139°55'0 0.0
2017-Feb-18 16:32N 35°36' E 139°55'0 0.0
2017-Feb-18 15:32N 35°36' E 139°55'0 0.0
2017-Feb-18 12:05N 35°36' E 139°55'0 0.0
2017-Feb-18 11:32N 35°36' E 139°55'0 0.0
2017-Feb-18 10:29N 35°36' E 139°55'0 0.0
2017-Feb-18 09:29N 35°36' E 139°55'0 0.0
2017-Feb-18 08:32N 35°36' E 139°55'0 0.0
2017-Feb-18 06:29N 35°36' E 139°55'0 0.0
2017-Feb-18 05:20N 35°36' E 139°55'0 0.0
2017-Feb-18 00:26N 35°36' E 139°55'0 0.0
2017-Feb-17 23:32N 35°36' E 139°55'0 0.0
2017-Feb-17 22:32N 35°36' E 139°55'0 0.0
2017-Feb-17 21:32N 35°36' E 139°55'0 0.1
2017-Feb-17 20:32N 35°36' E 139°55'0 0.0
2017-Feb-17 19:32N 35°36' E 139°55'0 0.0
2017-Feb-17 18:32N 35°36' E 139°55'0 0.0
2017-Feb-17 17:32N 35°36' E 139°55'0 0.0
2017-Feb-17 16:32N 35°36' E 139°55'0 0.0
2017-Feb-17 15:29N 35°36' E 139°55'0 0.0
2017-Feb-17 14:32N 35°36' E 139°55'0 0.0
2017-Feb-17 13:29N 35°36' E 139°55'0 0.0
2017-Feb-17 12:33N 35°36' E 139°55'0 0.1
2017-Feb-17 11:33N 35°36' E 139°55'0 0.1
2017-Feb-17 10:32N 35°36' E 139°55'0 0.0
2017-Feb-17 09:33N 35°36' E 139°55'0 0.0
2017-Feb-17 08:32N 35°36' E 139°55'0 0.0
2017-Feb-17 07:33N 35°36' E 139°55'0 0.0
2017-Feb-17 06:28N 35°36' E 139°55'1 1.3
2017-Feb-17 05:34N 35°35' E 139°54'8 8.0
2017-Feb-17 04:34N 35°32' E 139°46'0 0.3
2017-Feb-17 03:31N 35°32' E 139°45'0 0.0
2017-Feb-17 02:31N 35°32' E 139°45'0 0.3
2017-Feb-17 01:33N 35°32' E 139°45'3 3.5
2017-Feb-17 00:34N 35°32' E 139°50'6 5.3
2017-Feb-16 23:24N 35°36' E 139°55'0 0.0
2017-Feb-16 22:27N 35°36' E 139°55'0 0.0
2017-Feb-16 21:33N 35°36' E 139°55'0 0.0
2017-Feb-16 20:32N 35°36' E 139°55'0 0.0
2017-Feb-16 19:33N 35°36' E 139°55'0 0.0
2017-Feb-16 18:33N 35°36' E 139°55'0 0.0
2017-Feb-16 17:33N 35°36' E 139°55'0 0.0
2017-Feb-16 16:32N 35°36' E 139°55'0 0.0
2017-Feb-16 15:33N 35°36' E 139°55'0 0.0
2017-Feb-16 14:32N 35°36' E 139°55'0 0.0
2017-Feb-16 13:33N 35°36' E 139°55'0 0.0
2017-Feb-16 12:33N 35°36' E 139°55'0 0.0
2017-Feb-16 10:21N 35°36' E 139°55'0 0.0
2017-Feb-16 09:27N 35°36' E 139°55'0 0.0
2017-Feb-16 08:27N 35°36' E 139°55'0 0.0
2017-Feb-16 07:30N 35°36' E 139°55'0 0.0
2017-Feb-16 06:30N 35°36' E 139°55'6 6.1
2017-Feb-16 05:33N 35°32' E 139°51'2 2.2
2017-Feb-16 04:31N 35°30' E 139°49'0 0.0
2017-Feb-16 03:31N 35°30' E 139°49'0 0.0
2017-Feb-16 02:31N 35°30' E 139°49'0 0.0
2017-Feb-16 01:31N 35°30' E 139°49'0 0.0
2017-Feb-16 00:31N 35°30' E 139°49'0 0.0
2017-Feb-15 23:28N 35°30' E 139°49'0 0.0
2017-Feb-15 22:31N 35°30' E 139°49'6 6.1
2017-Feb-15 21:33N 35°24' E 139°46'1110.7
2017-Feb-15 20:33N 35°14' E 139°47'1010.2
2017-Feb-15 19:33N 35°04' E 139°45'  
Track history (hours):
 
Tides and Currents Weather Stations Pressure Air Temp Water Temp Dewpoint Dewpoint Depression Visibility Wind Speed Wind Dir Waves Ship Positions

Ryoho Maru No.2

Last reported at 2017-Feb-22 05:33 UTC. Time now 2017-Feb-22 06:29 UTC.
Position N 35°26' E 139°45'.

Length 57 m; draft 4 m.

Type: Tanker. MMSI: 431001062.

Date/timePositionNaut miles runAvg speedWind from/ knotsBaromVisibWave heightAir tempDewpointWater temp
2017-Feb-22 05:33N 35°26' E 139°45'10 9.7
2017-Feb-22 04:33N 35°30' E 139°56'2 0.4
2017-Feb-21 22:33N 35°30' E 139°58'7 7.2
2017-Feb-21 21:34N 35°36' E 139°55'0 0.0
2017-Feb-21 20:29N 35°36' E 139°55'0 0.0
2017-Feb-21 19:26N 35°36' E 139°55'0 0.0
2017-Feb-21 18:29N 35°36' E 139°55'0 0.0
2017-Feb-21 17:29N 35°36' E 139°55'0 0.0
2017-Feb-21 16:29N 35°36' E 139°55'0 0.0
2017-Feb-21 15:32N 35°36' E 139°55'0 0.0
2017-Feb-21 14:29N 35°36' E 139°55'0 0.0
2017-Feb-21 13:33N 35°36' E 139°55'0 0.0
2017-Feb-21 12:32N 35°36' E 139°55'0 0.0
2017-Feb-21 11:30N 35°36' E 139°55'0 0.0
2017-Feb-21 10:32N 35°36' E 139°55'0 0.0
2017-Feb-21 09:29N 35°36' E 139°55'0 0.0
2017-Feb-21 08:31N 35°36' E 139°55'0 0.0
2017-Feb-21 07:31N 35°36' E 139°55'0 0.0
2017-Feb-21 06:31N 35°36' E 139°55'7 7.5
2017-Feb-21 05:33N 35°30' E 139°59'1 0.8
2017-Feb-21 04:17N 35°29' E 139°60'0 0.0
2017-Feb-20 22:33N 35°29' E 139°60'8 2.0
2017-Feb-20 18:33N 35°36' E 139°55'0 0.0
2017-Feb-20 17:21N 35°36' E 139°55'0 0.0
2017-Feb-20 16:31N 35°36' E 139°55'0 0.0
2017-Feb-20 15:33N 35°36' E 139°55'0 0.0
2017-Feb-20 14:33N 35°36' E 139°55'0 0.0
2017-Feb-20 13:32N 35°36' E 139°55'0 0.0
2017-Feb-20 10:15N 35°36' E 139°55'0 0.1
2017-Feb-20 09:04N 35°36' E 139°55'0 0.1
2017-Feb-20 08:31N 35°36' E 139°55'0 0.0
2017-Feb-20 07:33N 35°36' E 139°55'0 0.0
2017-Feb-20 06:34N 35°36' E 139°55'0 0.0
2017-Feb-20 05:33N 35°36' E 139°55'0 0.0
2017-Feb-20 04:33N 35°36' E 139°55'0 0.0
2017-Feb-20 03:32N 35°36' E 139°55'0 0.0
2017-Feb-20 02:32N 35°36' E 139°55'0 0.0
2017-Feb-20 01:33N 35°36' E 139°55'0 0.1
2017-Feb-20 00:30N 35°36' E 139°55'0 0.0
2017-Feb-19 23:04N 35°36' E 139°55'0 0.0
2017-Feb-19 22:28N 35°36' E 139°55'0 0.0
2017-Feb-19 21:32N 35°36' E 139°55'0 0.0
2017-Feb-19 20:33N 35°36' E 139°55'0 0.0
2017-Feb-19 19:32N 35°36' E 139°55'0 0.0
2017-Feb-19 18:33N 35°36' E 139°55'0 0.0
2017-Feb-19 17:32N 35°36' E 139°55'0 0.0
2017-Feb-19 16:29N 35°36' E 139°55'0 0.0
2017-Feb-19 15:32N 35°36' E 139°55'0 0.0
2017-Feb-19 14:14N 35°36' E 139°55'0 0.0
2017-Feb-19 13:32N 35°36' E 139°55'0 0.0
2017-Feb-19 12:32N 35°36' E 139°55'0 0.0
2017-Feb-19 11:32N 35°36' E 139°55'0 0.0
2017-Feb-19 10:32N 35°36' E 139°55'0 0.0
2017-Feb-19 09:14N 35°36' E 139°55'0 0.0
2017-Feb-19 08:32N 35°36' E 139°55'0 0.0
2017-Feb-19 07:32N 35°36' E 139°55'0 0.0
2017-Feb-19 05:32N 35°36' E 139°55'0 0.1
2017-Feb-19 04:32N 35°36' E 139°55'0 0.0
2017-Feb-19 03:32N 35°36' E 139°55'0 0.0
2017-Feb-19 02:32N 35°36' E 139°55'0 0.0
2017-Feb-19 01:32N 35°36' E 139°55'0 0.0
2017-Feb-19 00:32N 35°36' E 139°55'0 0.0
2017-Feb-18 23:32N 35°36' E 139°55'0 0.0
2017-Feb-18 22:32N 35°36' E 139°55'0 0.0
2017-Feb-18 21:32N 35°36' E 139°55'0 0.0
2017-Feb-18 20:32N 35°36' E 139°55'0 0.0
2017-Feb-18 19:32N 35°36' E 139°55'0 0.0
2017-Feb-18 18:29N 35°36' E 139°55'0 0.0
2017-Feb-18 17:32N 35°36' E 139°55'0 0.0
2017-Feb-18 16:32N 35°36' E 139°55'0 0.0
2017-Feb-18 15:32N 35°36' E 139°55'0 0.0
2017-Feb-18 12:05N 35°36' E 139°55'0 0.0
2017-Feb-18 11:32N 35°36' E 139°55'0 0.0
2017-Feb-18 10:29N 35°36' E 139°55'0 0.0
2017-Feb-18 09:29N 35°36' E 139°55'0 0.0
2017-Feb-18 08:32N 35°36' E 139°55'0 0.0
2017-Feb-18 06:29N 35°36' E 139°55'0 0.0
2017-Feb-18 05:20N 35°36' E 139°55'0 0.0
2017-Feb-18 00:26N 35°36' E 139°55'0 0.0
2017-Feb-17 23:32N 35°36' E 139°55'0 0.0
2017-Feb-17 22:32N 35°36' E 139°55'0 0.0
2017-Feb-17 21:32N 35°36' E 139°55'0 0.1
2017-Feb-17 20:32N 35°36' E 139°55'0 0.0
2017-Feb-17 19:32N 35°36' E 139°55'0 0.0
2017-Feb-17 18:32N 35°36' E 139°55'0 0.0
2017-Feb-17 17:32N 35°36' E 139°55'0 0.0
2017-Feb-17 16:32N 35°36' E 139°55'0 0.0
2017-Feb-17 15:29N 35°36' E 139°55'0 0.0
2017-Feb-17 14:32N 35°36' E 139°55'0 0.0
2017-Feb-17 13:29N 35°36' E 139°55'0 0.0
2017-Feb-17 12:33N 35°36' E 139°55'0 0.1
2017-Feb-17 11:33N 35°36' E 139°55'0 0.1
2017-Feb-17 10:32N 35°36' E 139°55'0 0.0
2017-Feb-17 09:33N 35°36' E 139°55'0 0.0
2017-Feb-17 08:32N 35°36' E 139°55'0 0.0
2017-Feb-17 07:33N 35°36' E 139°55'0 0.0
2017-Feb-17 06:28N 35°36' E 139°55'1 1.3
2017-Feb-17 05:34N 35°35' E 139°54'8 8.0
2017-Feb-17 04:34N 35°32' E 139°46'0 0.3
2017-Feb-17 03:31N 35°32' E 139°45'0 0.0
2017-Feb-17 02:31N 35°32' E 139°45'0 0.3
2017-Feb-17 01:33N 35°32' E 139°45'3 3.5
2017-Feb-17 00:34N 35°32' E 139°50'6 5.3
2017-Feb-16 23:24N 35°36' E 139°55'0 0.0
2017-Feb-16 22:27N 35°36' E 139°55'0 0.0
2017-Feb-16 21:33N 35°36' E 139°55'0 0.0
2017-Feb-16 20:32N 35°36' E 139°55'0 0.0
2017-Feb-16 19:33N 35°36' E 139°55'0 0.0
2017-Feb-16 18:33N 35°36' E 139°55'0 0.0
2017-Feb-16 17:33N 35°36' E 139°55'0 0.0
2017-Feb-16 16:32N 35°36' E 139°55'0 0.0
2017-Feb-16 15:33N 35°36' E 139°55'0 0.0
2017-Feb-16 14:32N 35°36' E 139°55'0 0.0
2017-Feb-16 13:33N 35°36' E 139°55'0 0.0
2017-Feb-16 12:33N 35°36' E 139°55'0 0.0
2017-Feb-16 10:21N 35°36' E 139°55'0 0.0
2017-Feb-16 09:27N 35°36' E 139°55'0 0.0
2017-Feb-16 08:27N 35°36' E 139°55'0 0.0
2017-Feb-16 07:30N 35°36' E 139°55'0 0.0
2017-Feb-16 06:30N 35°36' E 139°55'6 6.1
2017-Feb-16 05:33N 35°32' E 139°51'2 2.2
2017-Feb-16 04:31N 35°30' E 139°49'0 0.0
2017-Feb-16 03:31N 35°30' E 139°49'0 0.0
2017-Feb-16 02:31N 35°30' E 139°49'0 0.0
2017-Feb-16 01:31N 35°30' E 139°49'0 0.0
2017-Feb-16 00:31N 35°30' E 139°49'0 0.0
2017-Feb-15 23:28N 35°30' E 139°49'0 0.0
2017-Feb-15 22:31N 35°30' E 139°49'6 6.1
2017-Feb-15 21:33N 35°24' E 139°46'1110.7
2017-Feb-15 20:33N 35°14' E 139°47'1010.2
2017-Feb-15 19:33N 35°04' E 139°45'  

Dump ship's entire track history